Metar Cercanos

 

LEPA - Palma De Mallorc, Spain
Distance from station: ONO 38km
Actualización: 20/10/2018 21:30
Few Clouds
Few Clouds
 Viento del NE
Viento: NE 11 km/h
Temperatura: 20°C
Rocío: 19°C
Humedad: 94%
Barómetro: 1021 hPa
Clouds: Few Clouds
Visibility: 10 km
Cloud details: Few Clouds 914 m
2018/10/20 19:30 LEPA 201930Z 05006KT 360V080 9999 FEW030 20/19 Q1021 NOSIG
LEMH - Mahon/Menorca Is, Spain
Distance from station: ENE 105km
Actualización: 20/10/2018 21:30
Muy nuboso
Muy nuboso
 Viento del E
Viento: E 6 km/h
Temperatura: 20°C
Rocío: 19°C
Humedad: 94%
Barómetro: 1021 hPa
Clouds: Muy nuboso
Visibility: 10 km
Cloud details: Muy nuboso 335 m
2018/10/20 19:30 LEMH 201930Z 09003KT 040V110 9999 BKN011 20/19 Q1021
 
LEIB - Ibiza/Es Codola, Spain
Distance from station: OSO 165km
Actualización: 20/10/2018 21:30
Parcialmente nuboso
Parcialmente nuboso
 Viento del ENE
Viento: ENE 28 km/h
Temperatura: 22°C
Rocío: 19°C
Humedad: 83%
Barómetro: 1020 hPa
Clouds: Parcialmente nuboso
Visibility: 10 km
Cloud details: Few Clouds 366 m
Parcialmente nuboso 457 m
2018/10/20 19:30 LEIB 201930Z 07015KT 9999 FEW012 SCT015 22/19 Q1020 NOSIG
LEBL - Barcelona Airpor, Spain
Distance from station: NNO 225km
Actualización: 20/10/2018 21:30
Despejado
Despejado
 Viento del varies
Viento: varies 4 km/h
Temperatura: 19°C
Rocío: 17°C
Humedad: 88%
Barómetro: 1023 hPa
Resumen: Despejado
Visibility: greater than 10 km
2018/10/20 19:30 LEBL 201930Z VRB02KT CAVOK 19/17 Q1023 NOSIG
 
LEVC - Valencia (civ/Mi, Spain
Distance from station: NO 188km
Actualización: 20/10/2018 21:30
Lluvia débil, Muy nuboso
Lluvia débil, Muy nuboso
 Viento del NE
Viento: NE 17 km/h
Temperatura: 21°C
Rocío: 18°C
Humedad: 83%
Barómetro: 1022 hPa
Resumen: Lluvia débil
Clouds: Muy nuboso
Visibility: 10 km
Cloud details: Few Clouds 610 m
Parcialmente nuboso 762 m
Muy nuboso 1219 m
2018/10/20 19:30 LEVC 201930Z 04009KT 360V080 9999 -RA FEW020 SCT025 BKN040 21/18 Q1022 NOSIG
LEGE - Gerona/Costa Bra, Spain
Distance from station: N 276km
Actualización: 20/10/2018 21:30
Despejado
Despejado
 Viento del N
Viento: N 7 km/h
Temperatura: 17°C
Rocío: 15°C
Humedad: 88%
Barómetro: 1023 hPa
Resumen: Despejado
Visibility: greater than 10 km
2018/10/20 19:30 LEGE 201930Z 36004KT CAVOK 17/15 Q1023
 
LEAL - Alicante/El Alte, Spain
Distance from station: OSO 344km
Actualización: 20/10/2018 21:30
Few Clouds
Few Clouds
 Viento del ENE
Viento: ENE 33 km/h
Temperatura: 22°C
Rocío: 18°C
Humedad: 78%
Barómetro: 1018 hPa
Clouds: Few Clouds
Visibility: 10 km
Cloud details: Few Clouds 671 m
2018/10/20 19:30 LEAL 201930Z 07018KT 9999 FEW022 22/18 Q1018 NOSIG
LEAM - Almeria Airport, Spain
Distance from station: SSO 56km
Actualización: 20/10/2018 21:30
Few Clouds
Few Clouds
 Viento del NE
Viento: NE 22 km/h
Temperatura: 23°C
Rocío: 17°C
Humedad: 69%
Barómetro: 1016 hPa
Clouds: Few Clouds
Visibility: 10 km
Cloud details: Few Clouds 610 m
2018/10/20 19:30 LEAM 201930Z 04012KT 360V070 9999 FEW020 23/17 Q1016
 
LEZG - Zaragoza (mil/Ci, Spain
Distance from station: NO 431km
Actualización: 20/10/2018 21:30
Few Clouds
Few Clouds
 Viento del varies
Viento: varies 2 km/h
Temperatura: 18°C
Rocío: 15°C
Humedad: 83%
Barómetro: 1023 hPa
Clouds: Few Clouds
Visibility: 10 km
Cloud details: Few Clouds 914 m
2018/10/20 19:30 LEZG 201930Z VRB01KT 9999 FEW030 18/15 Q1023
LEMD - Madrid/Barajas, Spain
Distance from station: ONO 234km
Actualización: 20/10/2018 21:00
Parcialmente nuboso
Parcialmente nuboso
 Viento del NO
Viento: NO 6 km/h
Temperatura: 17°C
Rocío: 15°C
Humedad: 88%
Barómetro: 1021 hPa
Clouds: Parcialmente nuboso
Visibility: 10 km
Cloud details: Few Clouds 1524 m
Parcialmente nuboso 1981 m
2018/10/20 19:00 LEMD 201900Z 31003KT 280V010 9999 FEW050 SCT065 17/15 Q1021 R88/29//95 NOSIG
 
LEGR - Granada Airport, Spain
Distance from station: OSO 62km
Actualización: 20/10/2018 21:30
Muy nuboso
Muy nuboso
 Viento del varies
Viento: varies 4 km/h
Temperatura: 14°C
Rocío: 13°C
Humedad: 94%
Barómetro: 1017 hPa
Clouds: Muy nuboso
Visibility: 10 km
Cloud details: Few Clouds 762 m
Muy nuboso 2438 m
2018/10/20 19:30 LEGR 201930Z VRB02KT 9999 FEW025 BKN080 14/13 Q1017
LEMG - Malaga (civ/Mil), Spain
Distance from station: OSO 227km
Actualización: 20/10/2018 21:30
Parcialmente nuboso
Parcialmente nuboso
 Viento del SSE
Viento: SSE 11 km/h
Temperatura: 21°C
Rocío: 19°C
Humedad: 88%
Barómetro: 1015 hPa
Clouds: Parcialmente nuboso
Visibility: 10 km
Cloud details: Few Clouds 457 m
Parcialmente nuboso 1676 m
2018/10/20 19:30 LEMG 201930Z 16006KT 120V200 9999 FEW015 SCT055 21/19 Q1015 NOSIG
 
LEZL - Sevilla (civ/Mil, Spain
Distance from station: S 318km
Actualización: 20/10/2018 21:30
Parcialmente nuboso
Parcialmente nuboso
 Viento del ENE
Viento: ENE 17 km/h
Temperatura: 16°C
Rocío: 15°C
Humedad: 94%
Barómetro: 1015 hPa
Clouds: Parcialmente nuboso
Visibility: 10 km
Cloud details: Few Clouds 1067 m
Parcialmente nuboso 1494 m
2018/10/20 19:30 LEZL 201930Z 07009KT 9999 FEW035CB SCT049 16/15 Q1015 RETS TEMPO 3000 TSRA
LEVT - Vitoria, Spain
Distance from station: NO 226km
Actualización: 20/10/2018 21:30
Parcialmente nuboso
Parcialmente nuboso
 Viento del calm
Viento: Calma
Temperatura: 13°C
Rocío: 11°C
Humedad: 88%
Barómetro: 1025 hPa
Clouds: Parcialmente nuboso
Visibility: 8 km
Cloud details: Parcialmente nuboso 457 m
2018/10/20 19:30 LEVT 201930Z 00000KT 8000 SCT015 13/11 Q1025
 
LEBB - Bilbao/Sondica, Spain
Distance from station: NNO 235km
Actualización: 20/10/2018 21:30
Muy nuboso
Muy nuboso
 Viento del varies
Viento: varies 2 km/h
Temperatura: 17°C
Rocío: 16°C
Humedad: 94%
Barómetro: 1024 hPa
Clouds: Muy nuboso
Visibility: 6 km
Cloud details: Muy nuboso 701 m
2018/10/20 19:30 LEBB 201930Z VRB01KT 6000 BKN023 17/16 Q1024 NOSIG
LESO - San Sebastian/Fu, Spain
Distance from station: N 231km
Actualización: 20/10/2018 21:30
Mist, Parcialmente nuboso
Mist, Parcialmente nuboso
 Viento del calm
Viento: Calma
Temperatura: 16°C
Rocío: 15°C
Humedad: 94%
Barómetro: 1025 hPa
Resumen: Mist
Clouds: Parcialmente nuboso
Visibility: 3 km
Cloud details: Few Clouds 305 m
Parcialmente nuboso 549 m
2018/10/20 19:30 LESO 201930Z 00000KT 3100 BR FEW010 SCT018 16/15 Q1025
 
LEVD - Valladolid(Mil/C, Spain
Distance from station: ONO 239km
Actualización: 20/10/2018 21:30
Despejado
Despejado
 Viento del E
Viento: E 24 km/h
Temperatura: 15°C
Rocío: 9°C
Humedad: 68%
Barómetro: 1022 hPa
Resumen: Despejado
Visibility: greater than 10 km
2018/10/20 19:30 LEVD 201930Z 08013KT 050V110 CAVOK 15/09 Q1022
LESA - Salamanca (civ/M, Spain
Distance from station: ONO 349km
Actualización: 20/10/2018 21:30
Despejado
Despejado
 Viento del E
Viento: E 19 km/h
Temperatura: 16°C
Rocío: 10°C
Humedad: 68%
Barómetro: 1021 hPa
Resumen: Despejado
Visibility: greater than 10 km
2018/10/20 19:30 LESA 201930Z AUTO 10010KT 070V130 CAVOK 16/10 Q1021
 
LEXJ - Santander/Paraya, Spain
Distance from station: NNO 247km
Actualización: 20/10/2018 21:30
Mist, Few clouds
Mist, Few clouds
 Viento del ENE
Viento: ENE 9 km/h
Temperatura: 16°C
Rocío: 16°C
Humedad: 100%
Barómetro: 1024 hPa
Resumen: Mist
Clouds: Few Clouds
Visibility: 4 km
Cloud details: Few Clouds 610 m
2018/10/20 19:30 LEXJ 201930Z 06005KT 020V110 4000 BR FEW020 16/16 Q1024
LEAS - Asturias/Aviles, Spain
Distance from station: NO 214km
Actualización: 20/10/2018 21:30
Mist, Parcialmente nuboso
Mist, Parcialmente nuboso
 Viento del E
Viento: E 9 km/h
Temperatura: 16°C
Rocío: 15°C
Humedad: 94%
Barómetro: 1024 hPa
Resumen: Mist
Clouds: Parcialmente nuboso
Visibility: 5 km
Cloud details: Parcialmente nuboso 335 m
Parcialmente nuboso 762 m
2018/10/20 19:30 LEAS 201930Z 09005KT 060V120 5000 BR SCT011 SCT025 16/15 Q1024 TEMPO 3000 BR BKN010
 
LECO - La Coruna/Alvedr, Spain
Distance from station: ONO 222km
Actualización: 20/10/2018 21:30
Despejado
Despejado
 Viento del varies
Viento: varies 2 km/h
Temperatura: 16°C
Rocío: 12°C
Humedad: 77%
Barómetro: 1021 hPa
Resumen: Despejado
Visibility: greater than 10 km
2018/10/20 19:30 LECO 201930Z VRB01KT CAVOK 16/12 Q1021 NOSIG
LEVX - Vigo/Peinador, Spain
Distance from station: O 214km
Actualización: 20/10/2018 21:30
Despejado
Despejado
 Viento del varies
Viento: varies 4 km/h
Temperatura: 19°C
Rocío: 13°C
Humedad: 68%
Barómetro: 1018 hPa
Resumen: Despejado
Visibility: greater than 10 km
2018/10/20 19:30 LEVX 201930Z VRB02KT CAVOK 19/13 Q1018 NOSIG